Time;durP1;ratioP1;P1;durP2;ratioP2;P2;SDS_P1;SDS_P2;PMS_P1;PMS_P2;Temp;Humidity;BMP_temperature;BMP_pressure;BME280_temperature;BME280_humidity;BME280_pressure;Samples;Min_cycle;Max_cycle;Signal;HPM_P1;HPM_P2
2022/05/10 00:00:00;;;;;;;;;;;;;;;19.72;32.04;102018.81;5005085;28;96761;-65
2022/05/10 00:02:27;;;;;;;;;;;;;;;19.33;32.37;102007.50;5000898;28;97888;-65
2022/05/10 00:04:53;;;;;;;;;;;;;;;19.35;32.26;102006.47;5001377;28;102812;-65
2022/05/10 00:07:21;;;;;;;;;;;;;;;19.46;32.20;102003.25;5000571;28;99156;-66
2022/05/10 00:09:47;;;;;;;;;;;;;;;19.42;32.26;102004.34;5003125;28;98414;-66
2022/05/10 00:12:15;;;;;;;;;;;;;;;19.53;32.05;102003.78;5004389;28;96874;-65
2022/05/10 00:14:42;;;;;;;;;;;;;;;19.60;32.01;102008.75;5006060;28;98876;-66
2022/05/10 00:17:09;;;;;;;;;;;;;;;19.82;31.59;102009.31;5001130;28;98676;-66
2022/05/10 00:19:36;;;;;;;;;;;;;;;19.70;31.81;102003.75;5007517;28;98539;-65
2022/05/10 00:22:02;;;;;;;;;;;;;;;19.67;31.68;102001.25;5000495;28;98173;-66
2022/05/10 00:24:28;;;;;;;;;;;;;;;19.39;32.40;102005.34;5004197;28;99024;-67
2022/05/10 00:26:55;;;;;;;;;;;;;;;19.61;32.02;102001.59;4998180;28;98764;-65
2022/05/10 00:29:23;;;;;;;;;;;;;;;19.60;32.06;102006.06;5004059;28;97194;-65
2022/05/10 00:31:49;;;;;;;;;;;;;;;19.31;32.57;102006.69;4999026;28;97163;-66
2022/05/10 00:34:16;;;;;;;;;;;;;;;19.36;32.36;101996.63;4998995;28;101737;-67
2022/05/10 00:36:43;;;;;;;;;;;;;;;19.30;32.57;101995.09;5005889;28;98973;-66
2022/05/10 00:39:10;;;;;;;;;;;;;;;19.42;32.39;101985.59;5007138;28;96829;-73
2022/05/10 00:41:42;;;;;;;;;;;;;;;19.43;32.40;101977.44;4995927;28;96999;-71
2022/05/10 00:44:10;;;;;;;;;;;;;;;19.29;32.57;101982.69;4999948;28;98936;-72
2022/05/10 00:46:40;;;;;;;;;;;;;;;19.49;32.66;101981.66;4999558;28;98826;-73
2022/05/10 00:49:11;;;;;;;;;;;;;;;19.27;33.01;101967.63;5000904;28;96824;-73
2022/05/10 00:51:39;;;;;;;;;;;;;;;18.96;33.34;101963.00;5005416;28;96911;-71
2022/05/10 00:54:08;;;;;;;;;;;;;;;19.07;33.22;101966.84;5003170;28;98955;-71
2022/05/10 00:56:38;;;;;;;;;;;;;;;19.06;33.28;101954.38;5002326;28;99348;-71
2022/05/10 00:59:08;;;;;;;;;;;;;;;19.06;33.12;101953.53;5005123;28;97680;-73
2022/05/10 01:01:35;;;;;;;;;;;;;;;19.08;33.40;101957.00;5001051;28;97096;-72
2022/05/10 01:04:11;;;;;;;;;;;;;;;19.02;33.53;101952.81;5001761;28;118415;-71
2022/05/10 01:06:39;;;;;;;;;;;;;;;18.94;33.55;101949.66;4996630;28;102239;-66
2022/05/10 01:09:07;;;;;;;;;;;;;;;18.75;33.83;101948.00;5005890;28;97380;-66
2022/05/10 01:11:37;;;;;;;;;;;;;;;18.91;33.40;101948.94;4998948;28;96851;-66
2022/05/10 01:14:08;;;;;;;;;;;;;;;18.90;33.53;101936.53;5005552;28;99325;-66
2022/05/10 01:16:35;;;;;;;;;;;;;;;18.71;33.87;101948.16;5002420;28;98813;-66
2022/05/10 01:19:01;;;;;;;;;;;;;;;18.97;33.69;101943.28;5003525;28;98907;-66
2022/05/10 01:21:42;;;;;;;;;;;;;;;19.03;33.67;101933.09;5004631;28;97462;-65
2022/05/10 01:24:26;;;;;;;;;;;;;;;18.68;33.92;101928.72;4998002;28;101484;-67
2022/05/10 01:26:59;;;;;;;;;;;;;;;18.69;34.19;101925.97;4999798;28;98874;-66
2022/05/10 01:29:29;;;;;;;;;;;;;;;18.63;34.08;101933.44;5005103;28;97632;-65
2022/05/10 01:34:38;;;;;;;;;;;;;;;18.75;34.15;101922.09;4999038;28;97642;-66
2022/05/10 01:37:08;;;;;;;;;;;;;;;18.54;34.34;101915.97;4997941;28;97772;-66
2022/05/10 01:39:38;;;;;;;;;;;;;;;18.83;34.07;101911.88;5010716;28;96993;-65
2022/05/10 01:42:08;;;;;;;;;;;;;;;18.56;34.47;101913.25;5002070;28;96937;-66
2022/05/10 01:44:40;;;;;;;;;;;;;;;18.56;34.53;101905.25;5001799;28;99787;-67
2022/05/10 01:47:09;;;;;;;;;;;;;;;18.64;34.36;101905.72;5002224;28;99233;-67
2022/05/10 01:49:38;;;;;;;;;;;;;;;18.76;34.33;101912.25;5008699;28;97013;-66
2022/05/10 01:52:09;;;;;;;;;;;;;;;18.66;34.58;101915.38;5002493;28;98413;-67
2022/05/10 01:54:51;;;;;;;;;;;;;;;18.69;34.51;101923.28;5000787;28;98023;-66
2022/05/10 01:57:18;;;;;;;;;;;;;;;18.63;34.74;101912.88;4982042;28;98689;-67
2022/05/10 01:59:50;;;;;;;;;;;;;;;18.65;34.78;101915.47;4998675;28;96887;-66
2022/05/10 02:02:18;;;;;;;;;;;;;;;18.77;34.61;101922.03;4997378;28;97797;-65
2022/05/10 02:04:45;;;;;;;;;;;;;;;18.74;34.52;101919.50;5001703;28;99045;-65
2022/05/10 02:07:14;;;;;;;;;;;;;;;18.50;34.96;101917.09;4999543;28;98311;-66
2022/05/10 02:09:44;;;;;;;;;;;;;;;18.62;34.79;101915.63;4995646;28;97308;-65
2022/05/10 02:12:12;;;;;;;;;;;;;;;18.62;34.87;101912.97;4997561;28;98400;-65
2022/05/10 02:14:41;;;;;;;;;;;;;;;18.66;34.87;101914.53;5001253;28;98976;-65
2022/05/10 02:17:13;;;;;;;;;;;;;;;18.37;35.58;101909.75;5001501;28;99014;-65
2022/05/10 02:19:43;;;;;;;;;;;;;;;18.38;35.33;101904.28;5001464;28;96845;-65
2022/05/10 02:22:12;;;;;;;;;;;;;;;18.23;35.48;101899.72;5003036;28;96818;-66
2022/05/10 02:24:40;;;;;;;;;;;;;;;18.18;35.62;101894.56;4999654;28;99017;-65
2022/05/10 02:27:08;;;;;;;;;;;;;;;18.11;35.56;101887.81;5005350;28;98359;-65
2022/05/10 02:29:38;;;;;;;;;;;;;;;18.10;35.76;101894.09;5005263;28;97221;-65
2022/05/10 02:34:55;;;;;;;;;;;;;;;18.13;36.03;101888.59;5004233;28;96853;-66
2022/05/10 02:37:21;;;;;;;;;;;;;;;18.35;35.45;101891.09;5001682;28;99372;-65
2022/05/10 02:39:48;;;;;;;;;;;;;;;18.29;35.49;101894.06;5005183;28;96755;-66
2022/05/10 02:42:16;;;;;;;;;;;;;;;18.41;35.29;101885.41;4998108;28;98003;-66
2022/05/10 02:44:42;;;;;;;;;;;;;;;17.77;36.24;101872.53;5003361;28;97698;-65
2022/05/10 02:47:10;;;;;;;;;;;;;;;18.02;35.95;101874.88;5002323;28;98756;-66
2022/05/10 02:49:37;;;;;;;;;;;;;;;18.13;35.75;101885.91;5010996;28;97343;-66
2022/05/10 02:52:05;;;;;;;;;;;;;;;18.28;35.60;101877.13;5005549;28;98576;-65
2022/05/10 02:54:32;;;;;;;;;;;;;;;18.22;35.71;101884.59;5002002;28;98852;-66
2022/05/10 02:57:00;;;;;;;;;;;;;;;18.14;35.78;101873.41;5000172;28;99906;-66
2022/05/10 02:59:28;;;;;;;;;;;;;;;17.98;36.16;101869.75;5001823;28;96991;-65
2022/05/10 03:01:59;;;;;;;;;;;;;;;17.77;36.40;101871.66;5003985;28;97928;-65
2022/05/10 03:04:32;;;;;;;;;;;;;;;17.61;36.53;101868.84;5005013;28;101383;-65
2022/05/10 03:06:59;;;;;;;;;;;;;;;18.03;35.81;101868.59;4997848;28;98163;-66
2022/05/10 03:09:26;;;;;;;;;;;;;;;17.73;36.42;101860.22;5004088;28;96874;-66
2022/05/10 03:11:52;;;;;;;;;;;;;;;17.85;36.17;101862.31;5005745;28;97186;-66
2022/05/10 03:14:19;;;;;;;;;;;;;;;17.75;36.32;101855.69;5004495;28;99522;-71
2022/05/10 03:16:45;;;;;;;;;;;;;;;17.71;36.40;101864.81;5000720;28;98832;-71
2022/05/10 03:19:12;;;;;;;;;;;;;;;17.59;36.42;101862.66;5000378;28;97576;-72
2022/05/10 03:21:39;;;;;;;;;;;;;;;17.73;36.28;101854.88;5004248;28;96969;-72
2022/05/10 03:24:06;;;;;;;;;;;;;;;17.70;36.38;101857.72;5001275;28;99939;-72
2022/05/10 03:26:34;;;;;;;;;;;;;;;17.79;36.24;101859.94;5010257;28;98919;-65
2022/05/10 03:29:00;;;;;;;;;;;;;;;17.69;36.39;101855.09;4996590;28;96805;-66
2022/05/10 03:31:28;;;;;;;;;;;;;;;17.69;36.44;101857.78;5006186;28;97184;-65
2022/05/10 03:36:35;;;;;;;;;;;;;;;17.60;36.45;101861.72;5004856;28;97127;-65
2022/05/10 03:39:01;;;;;;;;;;;;;;;17.79;36.09;101854.59;4999060;28;96883;-66
2022/05/10 03:41:27;;;;;;;;;;;;;;;17.78;36.09;101850.22;5005573;28;96782;-65
2022/05/10 03:43:55;;;;;;;;;;;;;;;17.88;35.96;101847.94;5002753;28;98856;-66
2022/05/10 03:46:21;;;;;;;;;;;;;;;17.80;36.13;101848.31;5001715;28;98793;-66
2022/05/10 03:48:49;;;;;;;;;;;;;;;17.81;36.12;101842.03;5005328;28;97037;-65
2022/05/10 03:51:15;;;;;;;;;;;;;;;17.73;36.30;101851.34;5006950;28;97116;-65
2022/05/10 03:53:42;;;;;;;;;;;;;;;17.78;36.29;101849.34;4998313;28;99058;-67
2022/05/10 03:56:08;;;;;;;;;;;;;;;17.99;35.88;101852.75;5005173;28;98707;-65
2022/05/10 03:58:35;;;;;;;;;;;;;;;17.78;36.27;101841.31;4997277;28;96852;-66
2022/05/10 04:01:02;;;;;;;;;;;;;;;18.00;35.81;101843.78;5007742;28;97092;-65
2022/05/10 04:03:29;;;;;;;;;;;;;;;17.69;36.28;101844.41;5008202;28;100959;-73
2022/05/10 04:05:55;;;;;;;;;;;;;;;17.72;36.44;101836.28;5009426;28;97944;-71
2022/05/10 04:08:23;;;;;;;;;;;;;;;18.07;35.89;101831.84;5005843;28;99199;-71
2022/05/10 04:10:50;;;;;;;;;;;;;;;18.13;35.93;101836.91;5010082;28;96887;-72
2022/05/10 04:13:16;;;;;;;;;;;;;;;18.08;35.71;101834.47;5005779;28;99288;-68
2022/05/10 04:15:42;;;;;;;;;;;;;;;17.98;35.88;101835.00;5001654;28;97891;-65
2022/05/10 04:18:10;;;;;;;;;;;;;;;18.18;35.47;101840.25;5006971;28;97047;-65
2022/05/10 04:20:37;;;;;;;;;;;;;;;18.35;35.20;101834.88;5003192;28;96861;-66
2022/05/10 04:23:05;;;;;;;;;;;;;;;18.26;35.49;101832.66;5002492;28;98782;-65
2022/05/10 04:25:32;;;;;;;;;;;;;;;18.25;35.68;101836.28;5003709;28;99636;-72
2022/05/10 04:27:58;;;;;;;;;;;;;;;18.08;35.68;101833.59;5007268;28;97046;-73
2022/05/10 04:30:24;;;;;;;;;;;;;;;18.49;35.24;101828.84;5000743;28;96857;-65
2022/05/10 04:32:50;;;;;;;;;;;;;;;18.39;35.52;101824.88;5001483;28;99334;-66
2022/05/10 04:35:18;;;;;;;;;;;;;;;18.12;35.67;101816.44;5000119;28;98696;-65
2022/05/10 04:37:45;;;;;;;;;;;;;;;18.30;35.57;101818.22;5003788;28;96810;-64
2022/05/10 04:42:55;;;;;;;;;;;;;;;18.48;34.75;101817.25;5002603;28;97169;-66
2022/05/10 04:45:22;;;;;;;;;;;;;;;18.46;35.00;101818.28;5009178;28;98814;-66
2022/05/10 04:47:48;;;;;;;;;;;;;;;18.63;34.60;101823.69;5005255;28;96849;-66
2022/05/10 04:50:14;;;;;;;;;;;;;;;18.46;35.04;101807.56;5010874;28;98446;-73
2022/05/10 04:52:42;;;;;;;;;;;;;;;18.31;35.06;101810.09;5003252;28;98625;-73
2022/05/10 04:55:10;;;;;;;;;;;;;;;18.45;35.02;101813.88;4998806;28;99419;-72
2022/05/10 04:57:36;;;;;;;;;;;;;;;18.15;35.40;101825.19;5002847;28;96980;-72
2022/05/10 05:00:03;;;;;;;;;;;;;;;18.55;35.04;101818.72;5002233;28;96827;-74
2022/05/10 05:02:30;;;;;;;;;;;;;;;18.60;34.82;101824.69;4994224;28;100988;-71
2022/05/10 05:04:56;;;;;;;;;;;;;;;18.46;34.97;101819.16;5000133;28;98833;-72
2022/05/10 05:07:23;;;;;;;;;;;;;;;18.88;34.49;101825.94;4998905;28;97675;-72
2022/05/10 05:09:50;;;;;;;;;;;;;;;18.93;34.48;101824.72;5006624;28;96879;-73
2022/05/10 05:12:17;;;;;;;;;;;;;;;19.15;34.01;101815.53;4999795;28;98775;-74
2022/05/10 05:14:43;;;;;;;;;;;;;;;19.40;33.70;101824.84;5004152;28;100579;-66
2022/05/10 05:17:09;;;;;;;;;;;;;;;19.50;33.38;101818.03;4996238;28;97429;-72
2022/05/10 05:19:36;;;;;;;;;;;;;;;19.66;33.11;101826.09;4996361;28;98480;-66
2022/05/10 05:22:02;;;;;;;;;;;;;;;19.96;32.72;101817.22;4998864;28;99274;-68
2022/05/10 05:24:29;;;;;;;;;;;;;;;19.82;32.94;101810.84;5003517;28;101662;-65
2022/05/10 05:26:57;;;;;;;;;;;;;;;19.60;33.05;101807.69;5002100;28;96875;-66
2022/05/10 05:29:23;;;;;;;;;;;;;;;19.62;33.42;101802.22;4997991;28;97345;-65
2022/05/10 05:31:51;;;;;;;;;;;;;;;19.87;33.22;101811.47;4998808;28;99000;-72
2022/05/10 05:34:17;;;;;;;;;;;;;;;20.33;32.65;101805.25;5002685;28;99751;-71
2022/05/10 05:37:32;;;;;;;;;;;;;;;20.78;31.88;101796.25;5003167;28;96953;-66
2022/05/10 05:39:30;;;;;;;;;;;;;;;20.41;32.38;101797.63;4999156;28;98657;-71
2022/05/10 05:41:58;;;;;;;;;;;;;;;20.50;32.26;101792.56;5002238;28;97782;-73
2022/05/10 05:44:24;;;;;;;;;;;;;;;20.44;32.55;101798.28;5005621;28;101041;-67
2022/05/10 05:46:51;;;;;;;;;;;;;;;20.93;31.70;101796.16;5000650;28;96888;-74
2022/05/10 05:49:18;;;;;;;;;;;;;;;20.84;31.94;101796.72;5006317;28;97298;-75
2022/05/10 05:51:44;;;;;;;;;;;;;;;20.99;31.70;101784.19;5005736;28;101466;-73
2022/05/10 05:54:10;;;;;;;;;;;;;;;21.22;31.59;101801.56;5004624;28;101685;-72
2022/05/10 05:56:36;;;;;;;;;;;;;;;20.95;31.90;101802.28;5003824;28;98899;-73
2022/05/10 05:59:04;;;;;;;;;;;;;;;21.51;31.42;101788.94;5006607;28;96841;-72
2022/05/10 06:01:30;;;;;;;;;;;;;;;21.54;31.29;101802.19;5004475;28;101967;-68
2022/05/10 06:03:58;;;;;;;;;;;;;;;21.35;31.52;101797.13;5003206;28;98849;-67
2022/05/10 06:06:25;;;;;;;;;;;;;;;21.14;31.61;101793.06;5002277;28;97469;-66
2022/05/10 06:08:51;;;;;;;;;;;;;;;21.47;31.61;101790.97;5001941;28;97009;-65
2022/05/10 06:11:17;;;;;;;;;;;;;;;21.58;30.88;101793.84;5003695;28;99451;-67
2022/05/10 06:13:44;;;;;;;;;;;;;;;21.79;30.70;101783.50;5003060;28;98831;-66
2022/05/10 06:16:11;;;;;;;;;;;;;;;21.63;30.80;101798.91;4996950;28;98814;-65
2022/05/10 06:18:37;;;;;;;;;;;;;;;21.92;30.47;101797.88;5000717;28;97144;-66
2022/05/10 06:21:04;;;;;;;;;;;;;;;21.90;30.41;101788.16;5003500;28;98885;-67
2022/05/10 06:23:30;;;;;;;;;;;;;;;22.29;30.29;101788.22;5003294;28;98929;-66
2022/05/10 06:25:57;;;;;;;;;;;;;;;22.00;30.61;101787.47;4998745;28;96754;-68
2022/05/10 06:28:23;;;;;;;;;;;;;;;22.10;30.89;101785.03;5005183;28;97134;-68
2022/05/10 06:30:49;;;;;;;;;;;;;;;22.17;30.55;101791.72;5007309;28;98025;-68
2022/05/10 06:33:17;;;;;;;;;;;;;;;22.35;30.66;101786.91;5013223;28;98821;-66
2022/05/10 06:35:44;;;;;;;;;;;;;;;22.41;30.16;101784.66;5003443;28;97896;-65
2022/05/10 06:38:24;;;;;;;;;;;;;;;22.76;29.96;101781.41;5008739;28;96816;-67
2022/05/10 06:40:51;;;;;;;;;;;;;;;23.22;29.17;101777.16;5002374;28;98868;-68
2022/05/10 06:43:17;;;;;;;;;;;;;;;22.77;29.96;101781.31;5009924;28;99278;-66
2022/05/10 06:45:44;;;;;;;;;;;;;;;22.74;30.26;101770.72;5009965;28;96828;-68
2022/05/10 06:48:10;;;;;;;;;;;;;;;22.76;30.55;101776.88;5010820;28;96852;-66
2022/05/10 06:50:42;;;;;;;;;;;;;;;22.83;30.15;101771.91;5008485;28;101747;-67
2022/05/10 06:53:09;;;;;;;;;;;;;;;23.10;29.81;101763.69;5009366;28;101371;-72
2022/05/10 06:55:38;;;;;;;;;;;;;;;23.09;30.02;101757.44;5002071;28;96772;-74
2022/05/10 06:58:05;;;;;;;;;;;;;;;22.83;30.21;101759.31;5003569;28;96917;-74
2022/05/10 07:00:41;;;;;;;;;;;;;;;22.72;30.50;101756.44;5001746;28;98991;-73
2022/05/10 07:03:08;;;;;;;;;;;;;;;22.58;30.72;101761.94;5003215;28;98728;-75
2022/05/10 07:05:35;;;;;;;;;;;;;;;22.95;30.06;101757.56;5010443;28;96790;-73
2022/05/10 07:08:04;;;;;;;;;;;;;;;22.99;29.99;101749.13;5006100;28;96915;-66
2022/05/10 07:10:31;;;;;;;;;;;;;;;23.98;28.74;101754.44;5012655;28;99476;-66
2022/05/10 07:13:07;;;;;;;;;;;;;;;24.13;28.40;101740.66;5001328;28;98050;-67
2022/05/10 07:15:33;;;;;;;;;;;;;;;24.12;28.71;101747.03;5009097;28;96835;-66
2022/05/10 07:17:59;;;;;;;;;;;;;;;24.82;27.50;101740.69;5002164;28;97478;-73
2022/05/10 07:20:26;;;;;;;;;;;;;;;24.38;27.99;101736.09;5014438;28;98995;-72
2022/05/10 07:22:52;;;;;;;;;;;;;;;24.45;28.18;101742.72;5002868;28;99030;-74
2022/05/10 07:25:21;;;;;;;;;;;;;;;24.29;28.13;101742.19;5009045;28;97720;-72
2022/05/10 07:27:48;;;;;;;;;;;;;;;24.19;28.35;101737.50;5008221;28;96901;-73
2022/05/10 07:30:14;;;;;;;;;;;;;;;24.50;28.04;101732.41;5010917;28;98880;-72
2022/05/10 07:32:41;;;;;;;;;;;;;;;24.99;27.87;101734.84;5009871;28;99497;-73
2022/05/10 07:35:08;;;;;;;;;;;;;;;24.76;27.83;101735.75;5007562;28;96869;-73
2022/05/10 07:37:34;;;;;;;;;;;;;;;24.86;27.40;101737.63;4999353;28;96888;-73
2022/05/10 07:40:01;;;;;;;;;;;;;;;25.10;27.58;101726.72;5006140;28;97871;-71
2022/05/10 07:42:29;;;;;;;;;;;;;;;25.51;26.73;101734.16;5004635;28;96743;-74
2022/05/10 07:44:55;;;;;;;;;;;;;;;25.62;26.58;101723.31;5006077;28;96847;-73
2022/05/10 07:47:21;;;;;;;;;;;;;;;25.82;26.71;101731.59;5002775;28;97064;-73
2022/05/10 07:49:48;;;;;;;;;;;;;;;25.64;26.71;101721.34;5006283;28;99141;-74
2022/05/10 07:52:14;;;;;;;;;;;;;;;25.83;26.50;101717.09;5001739;28;97506;-73
2022/05/10 07:54:41;;;;;;;;;;;;;;;25.89;26.58;101711.16;5006497;28;96751;-72
2022/05/10 07:57:07;;;;;;;;;;;;;;;26.25;26.73;101713.47;5001148;28;96794;-74
2022/05/10 07:59:37;;;;;;;;;;;;;;;26.32;26.63;101717.34;5007195;28;98886;-73
2022/05/10 08:02:04;;;;;;;;;;;;;;;25.88;26.91;101715.69;4994629;28;98782;-67
2022/05/10 08:04:30;;;;;;;;;;;;;;;26.18;26.84;101707.69;4998889;28;96828;-64
2022/05/10 08:06:56;;;;;;;;;;;;;;;26.01;26.99;101704.69;5003667;28;96996;-65
2022/05/10 08:09:23;;;;;;;;;;;;;;;25.70;26.93;101701.03;5007118;28;99327;-67
2022/05/10 08:11:49;;;;;;;;;;;;;;;25.61;26.38;101693.66;5006537;28;98775;-67
2022/05/10 08:14:18;;;;;;;;;;;;;;;25.83;26.22;101701.69;5007910;28;96870;-72
2022/05/10 08:16:50;;;;;;;;;;;;;;;25.51;27.38;101690.84;5009322;28;97282;-73
2022/05/10 08:19:16;;;;;;;;;;;;;;;26.01;27.08;101692.00;5005464;28;97384;-73
2022/05/10 08:21:42;;;;;;;;;;;;;;;26.16;26.08;101696.13;5002319;28;99124;-73
2022/05/10 08:24:09;;;;;;;;;;;;;;;26.11;26.10;101687.53;5000305;28;97100;-73
2022/05/10 08:26:35;;;;;;;;;;;;;;;26.30;26.33;101683.25;5004438;28;97195;-73
2022/05/10 08:29:01;;;;;;;;;;;;;;;26.32;26.21;101687.53;5002657;28;99153;-72
2022/05/10 08:31:40;;;;;;;;;;;;;;;26.76;25.58;101686.38;5003556;28;99117;-66
2022/05/10 08:34:08;;;;;;;;;;;;;;;26.66;25.33;101684.59;5002386;28;97030;-66
2022/05/10 08:36:35;;;;;;;;;;;;;;;26.44;25.99;101672.94;5003877;28;96846;-73
2022/05/10 08:39:01;;;;;;;;;;;;;;;26.21;26.03;101676.75;4997561;28;99369;-73
2022/05/10 08:41:28;;;;;;;;;;;;;;;25.96;26.70;101679.84;5002442;28;100583;-71
2022/05/10 08:43:57;;;;;;;;;;;;;;;25.94;26.56;101677.28;5001411;28;97267;-72
2022/05/10 08:46:26;;;;;;;;;;;;;;;26.53;25.64;101669.41;5002777;28;96965;-73
2022/05/10 08:48:55;;;;;;;;;;;;;;;26.14;26.21;101671.00;5004873;28;98899;-73
2022/05/10 08:51:23;;;;;;;;;;;;;;;26.13;25.89;101668.41;5007474;28;100581;-73
2022/05/10 08:53:50;;;;;;;;;;;;;;;26.81;24.83;101661.53;5006329;28;96764;-72
2022/05/10 08:56:20;;;;;;;;;;;;;;;27.16;24.42;101661.97;5007372;28;96784;-73
2022/05/10 08:59:05;;;;;;;;;;;;;;;26.98;24.95;101654.66;5003864;28;99977;-72
2022/05/10 09:01:33;;;;;;;;;;;;;;;27.26;24.79;101660.13;4997817;28;99457;-72
2022/05/10 09:04:07;;;;;;;;;;;;;;;26.56;25.04;101663.72;5002070;28;96855;-73
2022/05/10 09:06:38;;;;;;;;;;;;;;;26.72;25.25;101656.94;4999393;28;97167;-72
2022/05/10 09:09:10;;;;;;;;;;;;;;;26.79;24.63;101642.69;5001064;28;100460;-68
2022/05/10 09:11:43;;;;;;;;;;;;;;;26.84;24.27;101645.00;5000136;28;99026;-67
2022/05/10 09:14:11;;;;;;;;;;;;;;;26.74;24.59;101633.25;5001931;28;97222;-66
2022/05/10 09:16:41;;;;;;;;;;;;;;;26.79;24.59;101641.81;5001493;28;97369;-66
2022/05/10 09:19:10;;;;;;;;;;;;;;;26.92;24.60;101637.06;5000129;28;98797;-66
2022/05/10 09:21:43;;;;;;;;;;;;;;;26.81;24.27;101632.56;5000593;28;97537;-64
2022/05/10 09:24:16;;;;;;;;;;;;;;;26.51;24.63;101638.03;5009756;28;97296;-67
2022/05/10 09:26:44;;;;;;;;;;;;;;;27.14;24.05;101625.13;4998724;28;96862;-66
2022/05/10 09:29:13;;;;;;;;;;;;;;;26.78;24.60;101623.88;5002575;28;97820;-73
2022/05/10 09:37:16;;;;;;;;;;;;;;;26.68;24.85;101618.41;5005377;28;98504;-73
2022/05/10 09:40:00;;;;;;;;;;;;;;;27.05;24.81;101617.81;5001577;28;98998;-73
2022/05/10 09:42:28;;;;;;;;;;;;;;;27.32;24.21;101618.84;5003356;28;97532;-72
2022/05/10 09:44:57;;;;;;;;;;;;;;;27.58;23.54;101610.16;5002132;28;96785;-72
2022/05/10 09:47:25;;;;;;;;;;;;;;;27.28;23.77;101603.88;4997962;28;97380;-73
2022/05/10 09:49:52;;;;;;;;;;;;;;;27.27;24.20;101615.72;5001215;28;102281;-72
2022/05/10 09:52:20;;;;;;;;;;;;;;;27.23;23.83;101610.72;5007037;28;98014;-74
2022/05/10 09:54:48;;;;;;;;;;;;;;;27.30;23.41;101593.75;5002456;28;97479;-73
2022/05/10 09:57:25;;;;;;;;;;;;;;;27.43;23.52;101600.75;5009416;28;97201;-75
2022/05/10 09:59:52;;;;;;;;;;;;;;;27.87;23.19;101594.72;5005184;28;99387;-72
2022/05/10 10:02:29;;;;;;;;;;;;;;;27.86;23.51;101600.28;5009745;28;98742;-74
2022/05/10 10:04:55;;;;;;;;;;;;;;;27.58;23.05;101591.16;5005835;28;97244;-72
2022/05/10 10:07:25;;;;;;;;;;;;;;;28.04;22.35;101587.66;5010041;28;97019;-74
2022/05/10 10:09:53;;;;;;;;;;;;;;;27.52;23.22;101591.75;5006315;28;100570;-72
2022/05/10 10:12:30;;;;;;;;;;;;;;;27.57;23.03;101589.47;5007505;28;99556;-72
2022/05/10 10:14:56;;;;;;;;;;;;;;;27.45;23.30;101582.44;5003082;28;96776;-74
2022/05/10 10:17:25;;;;;;;;;;;;;;;27.90;22.96;101579.97;5008147;28;97109;-72
2022/05/10 10:19:54;;;;;;;;;;;;;;;28.38;22.24;101575.28;5003377;28;99720;-73
2022/05/10 10:22:23;;;;;;;;;;;;;;;28.42;22.15;101575.84;5005786;28;99386;-73
2022/05/10 10:24:55;;;;;;;;;;;;;;;28.36;23.13;101562.84;5003163;28;97371;-73
2022/05/10 10:27:24;;;;;;;;;;;;;;;28.13;23.29;101571.34;5002875;28;97668;-72
2022/05/10 10:29:52;;;;;;;;;;;;;;;28.64;22.30;101555.53;4997580;28;99324;-73
2022/05/10 10:32:21;;;;;;;;;;;;;;;28.90;21.96;101553.84;5005388;28;97715;-72
2022/05/10 10:34:50;;;;;;;;;;;;;;;28.90;22.34;101559.28;5005177;28;96789;-73
2022/05/10 10:37:21;;;;;;;;;;;;;;;28.33;22.82;101549.56;5001422;28;96843;-72
2022/05/10 10:39:53;;;;;;;;;;;;;;;28.69;22.59;101545.06;5000909;28;98979;-74
2022/05/10 10:42:27;;;;;;;;;;;;;;;28.13;23.44;101536.03;4998596;28;98805;-73
2022/05/10 10:44:56;;;;;;;;;;;;;;;28.02;23.59;101533.50;5004289;28;96822;-72
2022/05/10 10:47:25;;;;;;;;;;;;;;;27.49;24.60;101532.31;5005261;28;96928;-73
2022/05/10 10:49:54;;;;;;;;;;;;;;;27.88;24.16;101533.13;5002577;28;97797;-66
2022/05/10 10:52:21;;;;;;;;;;;;;;;27.72;24.17;101529.13;5001079;28;101340;-65
2022/05/10 10:54:48;;;;;;;;;;;;;;;28.20;23.99;101521.88;4997667;28;97462;-67
2022/05/10 10:57:27;;;;;;;;;;;;;;;27.67;24.64;101520.59;5001349;28;97356;-66
2022/05/10 11:00:04;;;;;;;;;;;;;;;27.61;24.35;101514.88;5003656;28;98915;-66
2022/05/10 11:02:49;;;;;;;;;;;;;;;28.32;23.92;101504.34;4997901;28;97453;-65
2022/05/10 11:05:25;;;;;;;;;;;;;;;28.36;23.63;101503.03;5002559;28;97220;-66
2022/05/10 11:07:54;;;;;;;;;;;;;;;28.71;23.71;101499.53;4995484;28;96798;-67
2022/05/10 11:10:23;;;;;;;;;;;;;;;28.71;23.66;101499.53;5001705;28;97932;-67
2022/05/10 11:12:56;;;;;;;;;;;;;;;28.73;22.87;101492.97;4998481;28;98983;-67
2022/05/10 11:15:36;;;;;;;;;;;;;;;28.61;22.90;101486.03;5002954;28;97311;-66
2022/05/10 11:18:13;;;;;;;;;;;;;;;28.96;22.71;101489.78;4992007;28;97500;-66
2022/05/10 11:20:45;;;;;;;;;;;;;;;28.71;23.44;101488.66;5006368;28;99562;-66
2022/05/10 11:23:16;;;;;;;;;;;;;;;29.04;22.96;101479.00;5002652;28;99651;-66
2022/05/10 11:25:54;;;;;;;;;;;;;;;28.96;22.77;101485.22;5007199;28;96753;-66
2022/05/10 11:28:30;;;;;;;;;;;;;;;29.42;22.41;101478.66;5001163;28;97863;-66
2022/05/10 11:31:02;;;;;;;;;;;;;;;29.53;22.14;101475.69;5000878;28;98783;-66
2022/05/10 11:33:35;;;;;;;;;;;;;;;29.57;22.19;101479.78;5000559;28;101030;-66
2022/05/10 11:36:08;;;;;;;;;;;;;;;29.32;22.00;101464.28;4999778;28;96878;-66
2022/05/10 11:38:42;;;;;;;;;;;;;;;29.35;22.33;101461.25;5002083;28;97417;-66
2022/05/10 11:41:12;;;;;;;;;;;;;;;29.41;22.31;101460.59;5000896;28;97827;-73
2022/05/10 11:43:50;;;;;;;;;;;;;;;29.53;22.02;101464.81;5005814;28;97644;-74
2022/05/10 11:46:34;;;;;;;;;;;;;;;29.87;22.05;101442.16;5003407;28;96856;-74
2022/05/10 11:49:19;;;;;;;;;;;;;;;30.01;22.01;101444.31;5002605;28;97843;-72
2022/05/10 11:51:57;;;;;;;;;;;;;;;29.73;22.59;101439.03;5000528;28;99026;-72
2022/05/10 11:54:42;;;;;;;;;;;;;;;29.35;22.27;101436.75;4999879;28;97696;-73
2022/05/10 11:57:10;;;;;;;;;;;;;;;29.34;22.50;101436.94;4999437;28;96787;-73
2022/05/10 11:59:37;;;;;;;;;;;;;;;29.04;22.99;101425.44;5003194;28;97369;-72
2022/05/10 12:02:06;;;;;;;;;;;;;;;29.57;22.17;101421.75;5006891;28;98367;-73
2022/05/10 12:04:34;;;;;;;;;;;;;;;30.04;21.54;101419.47;5004614;28;98826;-72
2022/05/10 12:07:27;;;;;;;;;;;;;;;30.26;21.43;101415.28;5006758;28;97150;-72
2022/05/10 12:09:58;;;;;;;;;;;;;;;30.13;21.85;101404.00;5009701;28;97150;-72
2022/05/10 12:12:43;;;;;;;;;;;;;;;29.73;22.24;101400.06;5009762;28;97833;-72
2022/05/10 12:23:48;;;;;;;;;;;;;;;30.48;20.70;101399.16;5003982;28;97232;-72
2022/05/10 12:26:29;;;;;;;;;;;;;;;29.86;21.88;101392.31;5007246;28;99269;-72
2022/05/10 12:28:55;;;;;;;;;;;;;;;29.81;21.59;101391.06;5002045;28;97138;-73
2022/05/10 12:31:52;;;;;;;;;;;;;;;30.22;21.28;101392.94;5009999;28;96968;-72
2022/05/10 12:34:37;;;;;;;;;;;;;;;30.53;20.99;101390.47;5002828;28;99330;-73
2022/05/10 12:37:22;;;;;;;;;;;;;;;30.62;21.13;101380.44;5006928;28;98700;-75
2022/05/10 12:39:54;;;;;;;;;;;;;;;30.82;20.58;101388.13;5002809;28;97001;-74
2022/05/10 12:42:24;;;;;;;;;;;;;;;30.48;20.82;101384.66;5002702;28;96861;-72
2022/05/10 12:44:56;;;;;;;;;;;;;;;29.71;21.77;101377.59;5005836;28;101741;-72
2022/05/10 12:47:47;;;;;;;;;;;;;;;30.33;21.21;101370.81;5002652;28;99366;-73
2022/05/10 12:50:21;;;;;;;;;;;;;;;30.43;21.23;101366.09;5009166;28;96785;-73
2022/05/10 12:52:48;;;;;;;;;;;;;;;30.95;20.96;101365.78;5005946;28;96811;-72
2022/05/10 12:55:20;;;;;;;;;;;;;;;30.95;20.60;101365.78;5007916;28;99340;-72
2022/05/10 12:57:52;;;;;;;;;;;;;;;31.69;20.38;101367.38;5003963;28;98957;-72
2022/05/10 13:00:21;;;;;;;;;;;;;;;31.31;19.99;101355.34;5007939;28;96809;-73
2022/05/10 13:02:50;;;;;;;;;;;;;;;31.05;20.32;101350.09;5006173;28;96889;-73
2022/05/10 13:05:19;;;;;;;;;;;;;;;30.86;20.49;101351.28;5002464;28;99240;-74
2022/05/10 13:08:02;;;;;;;;;;;;;;;30.77;20.68;101355.06;4999492;27;99785;-72
2022/05/10 13:10:31;;;;;;;;;;;;;;;31.49;19.90;101341.47;5003897;28;96888;-73